createdAt,value
2022-10-11T00:01:31.321Z,2.67
2022-10-11T00:03:57.900Z,2.50
2022-10-11T00:06:26.605Z,3.05
2022-10-11T00:08:53.183Z,2.45
2022-10-11T00:11:19.733Z,2.67
2022-10-11T00:13:46.350Z,2.83
2022-10-11T00:16:14.236Z,2.70
2022-10-11T00:18:41.483Z,2.20
2022-10-11T00:21:12.144Z,3.28
2022-10-11T00:23:39.014Z,4.13
2022-10-11T00:26:08.043Z,3.47
2022-10-11T00:28:35.846Z,2.55
2022-10-11T00:31:05.313Z,2.42
2022-10-11T00:33:32.091Z,3.10
2022-10-11T00:36:00.775Z,2.83
2022-10-11T00:38:31.983Z,2.50
2022-10-11T00:40:59.964Z,2.28
2022-10-11T00:43:31.294Z,3.38
2022-10-11T00:46:06.905Z,3.22
2022-10-11T00:48:39.031Z,2.60
2022-10-11T00:51:12.999Z,1.98
2022-10-11T00:53:40.480Z,2.85
2022-10-11T00:56:13.078Z,2.65
2022-10-11T00:58:41.370Z,2.17
2022-10-11T01:01:08.198Z,2.30
2022-10-11T01:03:37.587Z,2.90
2022-10-11T01:06:04.494Z,2.60
2022-10-11T01:08:31.758Z,2.40
2022-10-11T01:10:59.250Z,2.30
2022-10-11T01:13:37.631Z,2.90
2022-10-11T01:16:10.188Z,2.78
2022-10-11T01:19:02.770Z,2.60
2022-10-11T01:21:48.105Z,3.83
2022-10-11T01:24:17.781Z,3.05
2022-10-11T01:26:53.114Z,2.80
2022-10-11T01:30:01.122Z,2.83
2022-10-11T01:32:38.126Z,2.63
2022-10-11T01:35:13.174Z,2.83
2022-10-11T01:37:46.394Z,2.40
2022-10-11T01:40:21.487Z,2.85
2022-10-11T01:42:49.355Z,2.67
2022-10-11T01:45:18.851Z,2.95
2022-10-11T01:47:48.734Z,2.75
2022-10-11T01:50:55.616Z,2.72
2022-10-11T01:53:31.461Z,3.13
2022-10-11T01:56:14.862Z,3.08
2022-10-11T01:59:12.013Z,3.47
2022-10-11T02:01:53.847Z,2.78
2022-10-11T02:04:37.210Z,2.70
2022-10-11T02:07:17.058Z,3.42
2022-10-11T02:09:56.816Z,2.35
2022-10-11T02:12:37.743Z,2.53
2022-10-11T02:15:09.212Z,2.60
2022-10-11T02:17:43.503Z,2.75
2022-10-11T02:20:16.259Z,3.15
2022-10-11T02:22:46.396Z,2.40
2022-10-11T02:25:17.844Z,2.72
2022-10-11T02:27:48.746Z,2.70
2022-10-11T02:30:16.372Z,3.33
2022-10-11T02:32:46.493Z,3.10
2022-10-11T02:35:13.799Z,2.58
2022-10-11T02:37:40.320Z,2.92
2022-10-11T02:40:15.947Z,2.53
2022-10-11T02:42:51.491Z,2.42
2022-10-11T02:45:38.906Z,2.70
2022-10-11T02:48:07.377Z,2.58
2022-10-11T02:50:37.699Z,2.50
2022-10-11T02:53:08.181Z,3.38
2022-10-11T02:55:35.526Z,3.15
2022-10-11T02:58:02.663Z,2.70
2022-10-11T03:00:29.584Z,2.65
2022-10-11T03:02:56.163Z,3.03
2022-10-11T03:05:22.714Z,2.63
2022-10-11T03:07:49.227Z,2.45
2022-10-11T03:10:15.889Z,2.53
2022-10-11T03:12:42.510Z,2.95
2022-10-11T03:15:09.482Z,3.42
2022-10-11T03:17:39.039Z,2.40
2022-10-11T03:20:09.174Z,2.75
2022-10-11T03:22:38.713Z,2.70
2022-10-11T03:25:06.232Z,2.67
2022-10-11T03:27:33.928Z,3.25
2022-10-11T03:30:01.039Z,2.90
2022-10-11T03:32:28.602Z,2.85
2022-10-11T03:34:55.340Z,2.58
2022-10-11T03:37:21.980Z,2.67
2022-10-11T03:39:48.823Z,2.83
2022-10-11T03:42:15.359Z,2.58
2022-10-11T03:44:42.266Z,2.72
2022-10-11T03:47:09.362Z,3.10
2022-10-11T03:49:43.275Z,3.38
2022-10-11T03:52:10.759Z,3.83
2022-10-11T03:54:37.638Z,3.05
2022-10-11T03:57:04.477Z,3.40
2022-10-11T03:59:31.103Z,3.10
2022-10-11T04:01:57.713Z,3.67
2022-10-11T04:04:24.313Z,2.72
2022-10-11T04:06:50.946Z,2.50
2022-10-11T04:09:17.523Z,3.10
2022-10-11T04:11:44.032Z,3.30
2022-10-11T04:14:10.592Z,3.28
2022-10-11T04:16:41.709Z,2.72
2022-10-11T04:19:10.466Z,3.10
2022-10-11T04:21:37.056Z,2.80
2022-10-11T04:24:04.150Z,3.40
2022-10-11T04:26:30.943Z,3.13
2022-10-11T04:28:57.767Z,2.65
2022-10-11T04:31:24.343Z,3.78
2022-10-11T04:33:50.959Z,2.50
2022-10-11T04:36:17.566Z,2.72
2022-10-11T04:38:44.125Z,2.92
2022-10-11T04:41:14.707Z,3.40
2022-10-11T04:43:41.636Z,3.70
2022-10-11T04:46:11.967Z,3.25
2022-10-11T04:48:38.630Z,4.95
2022-10-11T04:51:05.476Z,3.38
2022-10-11T04:53:32.126Z,4.32
2022-10-11T04:56:05.076Z,3.53
2022-10-11T04:58:34.039Z,3.38
2022-10-11T05:01:01.238Z,3.75
2022-10-11T05:03:28.324Z,2.85
2022-10-11T05:05:55.224Z,3.75
2022-10-11T05:08:24.442Z,2.95
2022-10-11T05:11:07.332Z,4.07
2022-10-11T05:13:37.379Z,2.60
2022-10-11T05:16:10.265Z,2.40
2022-10-11T05:18:38.375Z,3.38
2022-10-11T05:21:14.866Z,3.20
2022-10-11T05:23:44.854Z,3.15
2022-10-11T05:26:11.918Z,3.72
2022-10-11T05:28:38.743Z,3.75
2022-10-11T05:31:05.389Z,3.63
2022-10-11T05:33:32.588Z,3.08
2022-10-11T05:35:59.144Z,2.97
2022-10-11T05:38:25.633Z,2.58
2022-10-11T05:40:52.282Z,3.85
2022-10-11T05:43:18.964Z,3.42
2022-10-11T05:45:46.468Z,3.08
2022-10-11T05:48:16.000Z,3.25
2022-10-11T05:50:46.293Z,3.47
2022-10-11T05:53:14.417Z,4.50
2022-10-11T05:55:45.960Z,4.32
2022-10-11T05:58:15.236Z,3.25
2022-10-11T06:00:44.222Z,3.78
2022-10-11T06:03:14.503Z,3.92
2022-10-11T06:05:44.079Z,3.55
2022-10-11T06:08:11.221Z,4.15
2022-10-11T06:10:38.853Z,4.22
2022-10-11T06:13:06.487Z,4.43
2022-10-11T06:15:34.294Z,4.05
2022-10-11T06:18:01.221Z,4.05
2022-10-11T06:20:27.892Z,4.20
2022-10-11T06:22:54.527Z,4.18
2022-10-11T06:25:21.064Z,4.38
2022-10-11T06:27:47.665Z,5.00
2022-10-11T06:30:17.613Z,4.55
2022-10-11T06:32:46.861Z,4.63
2022-10-11T06:35:16.920Z,4.10
2022-10-11T06:37:46.224Z,3.92
2022-10-11T06:40:15.848Z,3.97
2022-10-11T06:42:44.883Z,5.05
2022-10-11T06:45:15.402Z,5.28
2022-10-11T06:47:44.242Z,6.13
2022-10-11T06:50:10.758Z,4.75
2022-10-11T06:52:37.309Z,5.95
2022-10-11T06:55:04.216Z,5.55
2022-10-11T06:57:30.713Z,5.22
2022-10-11T06:59:57.275Z,5.68
2022-10-11T07:02:23.782Z,4.30
2022-10-11T07:04:50.355Z,5.85
2022-10-11T07:07:17.069Z,5.88
2022-10-11T07:09:47.419Z,5.22
2022-10-11T07:12:17.117Z,5.18
2022-10-11T07:14:46.556Z,5.07
2022-10-11T07:17:15.897Z,5.32
2022-10-11T07:19:47.639Z,5.30
2022-10-11T07:22:17.494Z,5.15
2022-10-11T07:24:49.437Z,4.40
2022-10-11T07:27:15.966Z,4.97
2022-10-11T07:29:45.428Z,5.38
2022-10-11T07:32:14.270Z,4.70
2022-10-11T07:34:40.790Z,5.13
2022-10-11T07:37:07.382Z,4.60
2022-10-11T07:39:39.498Z,5.05
2022-10-11T07:42:06.910Z,4.53
2022-10-11T07:44:34.302Z,4.38
2022-10-11T07:47:00.894Z,4.85
2022-10-11T07:49:27.739Z,4.78
2022-10-11T07:51:54.336Z,5.07
2022-10-11T07:54:20.939Z,4.20
2022-10-11T07:56:47.496Z,5.18
2022-10-11T07:59:17.183Z,4.35
2022-10-11T08:01:46.809Z,4.40
2022-10-11T08:04:16.348Z,4.75
2022-10-11T08:06:48.614Z,4.55
2022-10-11T08:09:17.664Z,4.55
2022-10-11T08:11:46.974Z,3.90
2022-10-11T08:14:17.478Z,4.10
2022-10-11T08:16:46.661Z,4.80
2022-10-11T08:19:18.663Z,5.00
2022-10-11T08:21:45.312Z,5.95
2022-10-11T08:24:17.114Z,6.25
2022-10-11T08:26:48.431Z,4.82
2022-10-11T08:29:15.193Z,6.63
2022-10-11T08:31:42.009Z,6.05
2022-10-11T08:34:09.333Z,5.43
2022-10-11T08:36:35.946Z,6.10
2022-10-11T08:39:02.777Z,6.90
2022-10-11T08:41:38.092Z,5.93
2022-10-11T08:44:14.927Z,7.55
2022-10-11T08:46:47.009Z,6.43
2022-10-11T08:49:15.658Z,6.93
2022-10-11T08:51:50.830Z,6.18
2022-10-11T08:54:26.808Z,6.25
2022-10-11T08:56:53.595Z,7.05
2022-10-11T08:59:35.961Z,6.40
2022-10-11T09:02:55.690Z,6.53
2022-10-11T09:05:21.812Z,6.13
2022-10-11T09:08:05.592Z,7.15
2022-10-11T09:10:56.095Z,7.32
2022-10-11T09:13:31.475Z,6.10
2022-10-11T09:16:39.618Z,7.05
2022-10-11T09:19:34.872Z,7.15
2022-10-11T09:22:01.501Z,7.50
2022-10-11T09:24:49.116Z,7.93
2022-10-11T09:27:25.950Z,7.45
2022-10-11T09:30:14.737Z,7.70
2022-10-11T09:32:54.594Z,8.25
2022-10-11T09:35:22.748Z,13.70
2022-10-11T09:38:04.008Z,7.32
2022-10-11T09:41:14.317Z,8.25
2022-10-11T09:43:41.484Z,7.63
2022-10-11T09:46:32.483Z,7.78
2022-10-11T09:49:02.827Z,8.02
2022-10-11T09:51:30.288Z,7.88
2022-10-11T09:54:05.037Z,7.97
2022-10-11T09:56:33.934Z,7.68
2022-10-11T09:59:18.254Z,8.73
2022-10-11T10:01:45.257Z,8.65
2022-10-11T10:04:20.013Z,9.30
2022-10-11T10:06:46.650Z,13.93
2022-10-11T10:09:31.048Z,8.35
2022-10-11T10:12:00.026Z,8.57
2022-10-11T10:14:30.942Z,7.65
2022-10-11T10:17:01.857Z,7.78
2022-10-11T10:19:28.852Z,7.43
2022-10-11T10:21:56.811Z,8.25
2022-10-11T10:24:48.248Z,7.65
2022-10-11T10:27:14.766Z,7.70
2022-10-11T10:29:43.865Z,8.05
2022-10-11T10:32:25.649Z,7.30
2022-10-11T10:35:27.465Z,7.75
2022-10-11T10:38:06.846Z,7.40
2022-10-11T10:40:48.475Z,6.93
2022-10-11T10:43:23.960Z,6.80
2022-10-11T10:46:48.448Z,7.43
2022-10-11T10:49:55.566Z,6.90
2022-10-11T10:52:47.742Z,7.03
2022-10-11T10:55:24.227Z,7.88
2022-10-11T10:58:28.249Z,6.95
2022-10-11T11:01:15.674Z,7.18
2022-10-11T11:03:58.542Z,7.03
2022-10-11T11:06:37.225Z,7.25
2022-10-11T11:09:31.007Z,7.30
2022-10-11T11:12:10.520Z,8.43
2022-10-11T11:15:09.554Z,7.20
2022-10-11T11:18:00.446Z,7.63
2022-10-11T11:20:51.977Z,6.68
2022-10-11T11:23:41.957Z,7.68
2022-10-11T11:26:20.829Z,6.97
2022-10-11T11:29:03.506Z,7.43
2022-10-11T11:31:33.142Z,6.90
2022-10-11T11:34:08.781Z,7.32
2022-10-11T11:37:13.321Z,7.82
2022-10-11T11:39:53.125Z,6.95
2022-10-11T11:42:30.040Z,7.32
2022-10-11T11:45:00.438Z,7.70
2022-10-11T11:47:33.737Z,8.55
2022-10-11T11:50:20.850Z,8.23
2022-10-11T11:52:51.957Z,7.43
2022-10-11T11:55:32.387Z,8.07
2022-10-11T11:58:29.797Z,7.25
2022-10-11T12:01:31.512Z,7.90
2022-10-11T12:04:12.588Z,8.85
2022-10-11T12:06:47.918Z,7.97
2022-10-11T12:09:32.704Z,7.72
2022-10-11T12:12:01.595Z,7.63
2022-10-11T12:14:40.107Z,7.53
2022-10-11T12:17:09.383Z,7.78
2022-10-11T12:19:37.449Z,7.20
2022-10-11T12:22:28.992Z,7.30
2022-10-11T12:24:56.894Z,7.20
2022-10-11T12:27:44.451Z,7.22
2022-10-11T12:30:42.604Z,8.20
2022-10-11T12:33:33.332Z,7.35
2022-10-11T12:36:22.307Z,6.22
2022-10-11T12:39:20.962Z,7.65
2022-10-11T12:41:47.416Z,7.47
2022-10-11T12:44:20.784Z,8.02
2022-10-11T12:46:50.365Z,7.30
2022-10-11T12:49:38.052Z,6.40
2022-10-11T12:52:06.945Z,7.43
2022-10-11T12:54:52.556Z,7.30
2022-10-11T12:57:19.021Z,6.47
2022-10-11T12:59:46.853Z,5.90
2022-10-11T13:02:40.266Z,6.75
2022-10-11T13:05:25.720Z,7.00
2022-10-11T13:07:56.687Z,6.40
2022-10-11T13:10:28.936Z,6.10
2022-10-11T13:12:59.645Z,6.50
2022-10-11T13:15:26.941Z,7.32
2022-10-11T13:18:02.127Z,7.00
2022-10-11T13:20:36.229Z,6.40
2022-10-11T13:23:21.911Z,7.25
2022-10-11T13:25:52.755Z,7.80
2022-10-11T13:28:20.351Z,7.75
2022-10-11T13:30:54.357Z,7.60
2022-10-11T13:33:34.771Z,7.78
2022-10-11T13:36:03.987Z,8.48
2022-10-11T13:38:33.645Z,7.60
2022-10-11T13:41:05.285Z,7.20
2022-10-11T13:43:32.480Z,7.22
2022-10-11T13:46:01.537Z,7.10
2022-10-11T13:48:31.875Z,6.68
2022-10-11T13:51:28.045Z,6.70
2022-10-11T13:54:13.434Z,7.20
2022-10-11T13:56:49.846Z,6.40
2022-10-11T13:59:22.817Z,6.65
2022-10-11T14:01:54.285Z,5.57
2022-10-11T14:04:22.575Z,6.15
2022-10-11T14:06:54.513Z,6.20
2022-10-11T14:09:30.511Z,7.30
2022-10-11T14:12:25.887Z,6.07
2022-10-11T14:14:52.877Z,5.80
2022-10-11T14:17:21.881Z,5.75
2022-10-11T14:20:13.421Z,5.75
2022-10-11T14:22:39.928Z,5.38
2022-10-11T14:25:06.820Z,5.70
2022-10-11T14:27:33.411Z,5.53
2022-10-11T14:30:24.168Z,5.65
2022-10-11T14:32:50.248Z,6.72
2022-10-11T14:35:23.589Z,6.18
2022-10-11T14:37:50.298Z,6.63
2022-10-11T14:40:20.581Z,6.00
2022-10-11T14:42:50.945Z,5.60
2022-10-11T14:45:19.294Z,5.90
2022-10-11T14:47:45.971Z,6.75
2022-10-11T14:50:26.215Z,5.28
2022-10-11T14:52:53.598Z,5.90
2022-10-11T14:55:20.281Z,5.95
2022-10-11T14:57:50.031Z,6.20
2022-10-11T15:00:23.412Z,6.15
2022-10-11T15:02:52.729Z,5.72
2022-10-11T15:05:21.181Z,6.22
2022-10-11T15:07:49.195Z,6.13
2022-10-11T15:10:27.883Z,5.80
2022-10-11T15:12:56.125Z,6.25
2022-10-11T15:15:26.119Z,6.97
2022-10-11T15:17:55.475Z,5.72
2022-10-11T15:20:38.416Z,5.78
2022-10-11T15:23:05.684Z,5.30
2022-10-11T15:25:34.747Z,7.35
2022-10-11T15:28:02.138Z,5.43
2022-10-11T15:30:31.603Z,5.93
2022-10-11T15:32:58.692Z,6.22
2022-10-11T15:35:26.673Z,4.47
2022-10-11T15:37:56.684Z,5.28
2022-10-11T15:40:24.528Z,5.50
2022-10-11T15:42:53.560Z,5.47
2022-10-11T15:45:22.835Z,5.28
2022-10-11T15:47:49.963Z,5.45
2022-10-11T15:50:34.616Z,5.85
2022-10-11T15:53:13.609Z,5.60
2022-10-11T15:55:52.076Z,5.60
2022-10-11T15:58:36.288Z,5.18
2022-10-11T16:01:09.778Z,5.32
2022-10-11T16:03:36.742Z,5.72
2022-10-11T16:06:05.738Z,6.20
2022-10-11T16:08:34.136Z,5.88
2022-10-11T16:11:01.184Z,6.82
2022-10-11T16:13:27.945Z,7.07
2022-10-11T16:15:55.060Z,8.02
2022-10-11T16:18:24.793Z,6.47
2022-10-11T16:20:52.486Z,6.03
2022-10-11T16:23:22.243Z,5.75
2022-10-11T16:26:00.575Z,6.05
2022-10-11T16:28:27.726Z,6.75
2022-10-11T16:30:54.779Z,6.28
2022-10-11T16:33:21.779Z,6.28
2022-10-11T16:35:49.246Z,6.57
2022-10-11T16:38:18.201Z,5.88
2022-10-11T16:40:44.693Z,8.48
2022-10-11T16:43:11.218Z,6.30
2022-10-11T16:45:40.484Z,5.63
2022-10-11T16:48:07.026Z,5.75
2022-10-11T16:50:38.475Z,6.57
2022-10-11T16:53:06.096Z,6.63
2022-10-11T16:55:32.647Z,7.05
2022-10-11T16:57:59.162Z,6.03
2022-10-11T17:00:25.794Z,7.30
2022-10-11T17:02:52.391Z,7.40
2022-10-11T17:05:18.960Z,6.20
2022-10-11T17:07:48.663Z,7.07
2022-10-11T17:10:15.483Z,7.43
2022-10-11T17:12:46.462Z,6.88
2022-10-11T17:15:17.852Z,7.00
2022-10-11T17:17:44.357Z,7.53
2022-10-11T17:20:11.093Z,9.82
2022-10-11T17:22:37.582Z,8.45
2022-10-11T17:25:04.335Z,8.18
2022-10-11T17:27:31.378Z,7.80
2022-10-11T17:29:57.873Z,7.22
2022-10-11T17:32:24.405Z,6.75
2022-10-11T17:34:50.978Z,7.85
2022-10-11T17:37:19.095Z,6.88
2022-10-11T17:39:47.145Z,6.90
2022-10-11T17:42:13.755Z,6.95
2022-10-11T17:44:40.314Z,6.78
2022-10-11T17:47:06.813Z,7.05
2022-10-11T17:49:33.309Z,7.22
2022-10-11T17:51:59.799Z,7.15
2022-10-11T17:54:26.449Z,7.57
2022-10-11T17:56:54.472Z,7.18
2022-10-11T17:59:22.960Z,7.13
2022-10-11T18:01:52.550Z,7.03
2022-10-11T18:04:24.007Z,7.25
2022-10-11T18:06:53.727Z,6.93
2022-10-11T18:09:21.813Z,6.60
2022-10-11T18:11:52.793Z,6.57
2022-10-11T18:14:22.430Z,7.13
2022-10-11T18:16:51.746Z,7.35
2022-10-11T18:19:20.662Z,7.22
2022-10-11T18:21:47.159Z,7.65
2022-10-11T18:24:16.526Z,7.95
2022-10-11T18:26:44.849Z,9.00
2022-10-11T18:29:12.646Z,9.30
2022-10-11T18:31:39.952Z,9.82
2022-10-11T18:34:08.361Z,10.27
2022-10-11T18:36:34.957Z,10.45
2022-10-11T18:39:05.465Z,10.07
2022-10-11T18:41:33.176Z,9.57
2022-10-11T18:44:05.994Z,10.07
2022-10-11T18:46:33.119Z,9.32
2022-10-11T18:49:01.944Z,9.35
2022-10-11T18:51:34.687Z,9.13
2022-10-11T18:54:02.071Z,10.05
2022-10-11T18:56:31.266Z,9.13
2022-10-11T18:58:59.200Z,8.82
2022-10-11T19:01:31.599Z,8.20
2022-10-11T19:04:00.325Z,8.80
2022-10-11T19:06:29.773Z,9.43
2022-10-11T19:09:01.829Z,9.48
2022-10-11T19:11:28.634Z,8.40
2022-10-11T19:14:00.837Z,8.90
2022-10-11T19:16:30.075Z,8.68
2022-10-11T19:18:56.904Z,8.60
2022-10-11T19:21:23.617Z,10.20
2022-10-11T19:23:50.911Z,8.88
2022-10-11T19:26:21.490Z,9.32
2022-10-11T19:28:48.588Z,8.57
2022-10-11T19:31:18.994Z,8.23
2022-10-11T19:33:48.098Z,10.18
2022-10-11T19:36:15.424Z,9.60
2022-10-11T19:38:49.469Z,10.02
2022-10-11T19:41:19.539Z,10.10
2022-10-11T19:43:47.085Z,8.50
2022-10-11T19:46:20.142Z,9.75
2022-10-11T19:48:53.008Z,10.35
2022-10-11T19:51:24.894Z,10.10
2022-10-11T19:54:03.820Z,10.40
2022-10-11T19:56:34.701Z,10.38
2022-10-11T19:59:01.782Z,11.48
2022-10-11T20:01:30.966Z,10.73
2022-10-11T20:03:59.751Z,11.00
2022-10-11T20:06:28.281Z,9.90
2022-10-11T20:09:16.561Z,10.35
2022-10-11T20:11:42.261Z,10.65
2022-10-11T20:14:08.888Z,9.98
2022-10-11T20:16:35.766Z,10.55
2022-10-11T20:19:02.556Z,10.55
2022-10-11T20:21:30.279Z,10.70
2022-10-11T20:23:59.912Z,11.25
2022-10-11T20:26:27.566Z,10.00
2022-10-11T20:28:56.137Z,11.02
2022-10-11T20:31:34.224Z,10.88
2022-10-11T20:34:04.312Z,10.60
2022-10-11T20:36:32.645Z,9.98
2022-10-11T20:39:00.249Z,10.25
2022-10-11T20:41:32.257Z,10.27
2022-10-11T20:44:01.043Z,11.75
2022-10-11T20:46:30.115Z,9.88
2022-10-11T20:49:01.748Z,9.57
2022-10-11T20:51:30.200Z,10.27
2022-10-11T20:53:56.977Z,9.65
2022-10-11T20:56:23.809Z,9.90
2022-10-11T20:58:52.488Z,9.02
2022-10-11T21:01:22.135Z,10.05
2022-10-11T21:03:48.747Z,10.65
2022-10-11T21:06:15.490Z,9.93
2022-10-11T21:08:42.331Z,10.15
2022-10-11T21:11:09.571Z,11.32
2022-10-11T21:13:36.532Z,10.95
2022-10-11T21:16:10.562Z,11.38
2022-10-11T21:18:37.773Z,11.02
2022-10-11T21:21:09.404Z,11.45
2022-10-11T21:23:36.072Z,10.55
2022-10-11T21:26:04.271Z,9.68
2022-10-11T21:28:31.851Z,9.45
2022-10-11T21:31:05.252Z,10.70
2022-10-11T21:33:32.773Z,10.57
2022-10-11T21:36:00.136Z,9.60
2022-10-11T21:38:26.658Z,9.60
2022-10-11T21:40:53.229Z,10.13
2022-10-11T21:43:19.735Z,9.88
2022-10-11T21:45:46.328Z,11.07
2022-10-11T21:48:12.878Z,9.35
2022-10-11T21:50:39.428Z,10.93
2022-10-11T21:53:05.912Z,10.02
2022-10-11T21:55:32.424Z,9.55
2022-10-11T21:57:58.939Z,9.15
2022-10-11T22:00:25.500Z,9.43
2022-10-11T22:02:52.237Z,9.57
2022-10-11T22:05:18.833Z,8.80
2022-10-11T22:07:45.611Z,8.95
2022-10-11T22:10:12.132Z,9.50
2022-10-11T22:12:38.754Z,10.00
2022-10-11T22:15:05.914Z,10.77
2022-10-11T22:17:32.399Z,10.45
2022-10-11T22:19:58.923Z,9.90
2022-10-11T22:22:25.488Z,10.73
2022-10-11T22:24:51.965Z,9.80
2022-10-11T22:27:18.471Z,10.40
2022-10-11T22:29:44.976Z,9.52
2022-10-11T22:32:11.528Z,8.88
2022-10-11T22:34:38.022Z,10.98
2022-10-11T22:37:04.562Z,9.88
2022-10-11T22:39:31.050Z,9.55
2022-10-11T22:41:57.526Z,11.07
2022-10-11T22:44:24.039Z,9.68
2022-10-11T22:46:50.556Z,10.13
2022-10-11T22:49:17.061Z,9.50
2022-10-11T22:51:44.466Z,9.05
2022-10-11T22:54:11.432Z,9.90
2022-10-11T22:56:37.946Z,10.07
2022-10-11T22:59:04.536Z,10.88
2022-10-11T23:01:31.049Z,10.65
2022-10-11T23:03:57.631Z,11.40
2022-10-11T23:06:24.163Z,10.25
2022-10-11T23:08:50.656Z,10.75
2022-10-11T23:11:17.254Z,11.05
2022-10-11T23:13:43.793Z,10.23
2022-10-11T23:16:12.231Z,10.18
2022-10-11T23:18:39.157Z,10.13
2022-10-11T23:21:06.834Z,11.45
2022-10-11T23:23:33.709Z,9.23
2022-10-11T23:26:04.564Z,10.45
2022-10-11T23:28:31.791Z,10.93
2022-10-11T23:30:58.433Z,10.40
2022-10-11T23:33:25.187Z,11.20
2022-10-11T23:35:51.653Z,10.93
2022-10-11T23:38:18.182Z,10.90
2022-10-11T23:40:44.693Z,10.68
2022-10-11T23:43:11.233Z,10.05
2022-10-11T23:45:37.735Z,11.13
2022-10-11T23:48:04.658Z,10.57
2022-10-11T23:50:31.162Z,11.43
2022-10-11T23:52:57.684Z,10.82
2022-10-11T23:55:24.181Z,11.13
2022-10-11T23:57:50.679Z,10.70
